sensor_id;sensor_type;location;lat;lon;timestamp;temperature;humidity
12870;DHT22;6503;48.572;13.460;2023-03-22T08:00:19;11.30;99.90
12870;DHT22;6503;48.572;13.460;2023-03-22T08:02:47;11.30;99.90
12870;DHT22;6503;48.572;13.460;2023-03-22T08:05:15;11.40;99.90
12870;DHT22;6503;48.572;13.460;2023-03-22T08:07:42;11.50;99.90
12870;DHT22;6503;48.572;13.460;2023-03-22T08:10:13;11.60;99.90
12870;DHT22;6503;48.572;13.460;2023-03-22T08:12:43;11.70;99.90
12870;DHT22;6503;48.572;13.460;2023-03-22T08:15:11;11.80;99.90
12870;DHT22;6503;48.572;13.460;2023-03-22T08:17:40;11.90;99.90
12870;DHT22;6503;48.572;13.460;2023-03-22T08:20:11;12.00;99.90
12870;DHT22;6503;48.572;13.460;2023-03-22T08:22:38;12.10;99.90
12870;DHT22;6503;48.572;13.460;2023-03-22T08:25:09;12.20;99.90
12870;DHT22;6503;48.572;13.460;2023-03-22T08:27:46;12.40;99.90
12870;DHT22;6503;48.572;13.460;2023-03-22T08:30:27;12.50;99.90
12870;DHT22;6503;48.572;13.460;2023-03-22T08:32:56;12.60;99.90
12870;DHT22;6503;48.572;13.460;2023-03-22T08:35:24;12.70;99.90
12870;DHT22;6503;48.572;13.460;2023-03-22T08:37:53;12.80;99.90
12870;DHT22;6503;48.572;13.460;2023-03-22T08:40:21;13.00;99.90
12870;DHT22;6503;48.572;13.460;2023-03-22T08:42:50;13.00;99.90
12870;DHT22;6503;48.572;13.460;2023-03-22T08:45:18;13.10;99.90
12870;DHT22;6503;48.572;13.460;2023-03-22T08:47:50;13.10;99.90
12870;DHT22;6503;48.572;13.460;2023-03-22T08:50:20;13.10;99.90
12870;DHT22;6503;48.572;13.460;2023-03-22T08:52:47;13.20;99.90
12870;DHT22;6503;48.572;13.460;2023-03-22T08:55:18;13.20;99.90
12870;DHT22;6503;48.572;13.460;2023-03-22T08:57:45;13.40;99.90
12870;DHT22;6503;48.572;13.460;2023-03-22T09:00:17;13.40;99.90
12870;DHT22;6503;48.572;13.460;2023-03-22T09:02:44;13.50;99.90
12870;DHT22;6503;48.572;13.460;2023-03-22T09:05:12;13.70;99.90
12870;DHT22;6503;48.572;13.460;2023-03-22T09:07:41;13.80;99.90
12870;DHT22;6503;48.572;13.460;2023-03-22T09:10:10;13.90;99.90
12870;DHT22;6503;48.572;13.460;2023-03-22T09:12:42;14.00;99.90
12870;DHT22;6503;48.572;13.460;2023-03-22T09:15:10;14.10;99.90
12870;DHT22;6503;48.572;13.460;2023-03-22T09:17:39;14.20;99.90
12870;DHT22;6503;48.572;13.460;2023-03-22T09:20:07;14.30;99.90
12870;DHT22;6503;48.572;13.460;2023-03-22T09:22:34;14.30;99.90
12870;DHT22;6503;48.572;13.460;2023-03-22T09:25:05;14.40;99.90
12870;DHT22;6503;48.572;13.460;2023-03-22T09:27:33;14.40;99.90
12870;DHT22;6503;48.572;13.460;2023-03-22T09:30:01;14.50;99.90
12870;DHT22;6503;48.572;13.460;2023-03-22T09:32:34;14.70;99.90
12870;DHT22;6503;48.572;13.460;2023-03-22T09:35:04;14.80;99.90
12870;DHT22;6503;48.572;13.460;2023-03-22T09:37:32;14.90;99.90
12870;DHT22;6503;48.572;13.460;2023-03-22T09:40:07;15.00;99.90
12870;DHT22;6503;48.572;13.460;2023-03-22T09:42:41;15.00;99.90
12870;DHT22;6503;48.572;13.460;2023-03-22T09:45:15;15.10;99.90
12870;DHT22;6503;48.572;13.460;2023-03-22T09:47:50;15.20;99.90
12870;DHT22;6503;48.572;13.460;2023-03-22T09:50:44;15.20;99.90
12870;DHT22;6503;48.572;13.460;2023-03-22T09:53:14;15.40;99.90
12870;DHT22;6503;48.572;13.460;2023-03-22T09:55:51;15.60;99.90
12870;DHT22;6503;48.572;13.460;2023-03-22T09:58:24;15.70;99.90
12870;DHT22;6503;48.572;13.460;2023-03-22T10:01:01;15.80;99.90
12870;DHT22;6503;48.572;13.460;2023-03-22T10:03:57;15.90;99.90
12870;DHT22;6503;48.572;13.460;2023-03-22T10:06:32;16.10;99.90
12870;DHT22;6503;48.572;13.460;2023-03-22T10:09:08;16.10;99.90
12870;DHT22;6503;48.572;13.460;2023-03-22T10:11:44;16.30;99.90
12870;DHT22;6503;48.572;13.460;2023-03-22T10:14:31;16.30;99.90
12870;DHT22;6503;48.572;13.460;2023-03-22T10:17:03;16.30;99.90
12870;DHT22;6503;48.572;13.460;2023-03-22T10:19:35;16.40;99.90
12870;DHT22;6503;48.572;13.460;2023-03-22T10:22:11;16.40;99.90
12870;DHT22;6503;48.572;13.460;2023-03-22T10:28:15;16.70;99.90
12870;DHT22;6503;48.572;13.460;2023-03-22T10:33:20;16.80;99.90
12870;DHT22;6503;48.572;13.460;2023-03-22T10:35:50;16.90;98.80
12870;DHT22;6503;48.572;13.460;2023-03-22T10:38:21;17.00;98.10
12870;DHT22;6503;48.572;13.460;2023-03-22T10:40:52;17.20;96.20
12870;DHT22;6503;48.572;13.460;2023-03-22T10:43:22;17.30;94.80
12870;DHT22;6503;48.572;13.460;2023-03-22T10:45:52;17.40;94.90
12870;DHT22;6503;48.572;13.460;2023-03-22T10:48:26;17.50;93.90
12870;DHT22;6503;48.572;13.460;2023-03-22T10:50:55;17.40;92.50
12870;DHT22;6503;48.572;13.460;2023-03-22T10:53:28;17.40;94.10
12870;DHT22;6503;48.572;13.460;2023-03-22T10:55:56;17.50;93.00
12870;DHT22;6503;48.572;13.460;2023-03-22T10:58:30;17.50;92.50
12870;DHT22;6503;48.572;13.460;2023-03-22T11:00:59;17.60;90.60
12870;DHT22;6503;48.572;13.460;2023-03-22T11:03:36;17.80;87.60
12870;DHT22;6503;48.572;13.460;2023-03-22T11:06:06;17.90;84.10
12870;DHT22;6503;48.572;13.460;2023-03-22T11:08:45;18.10;78.90
12870;DHT22;6503;48.572;13.460;2023-03-22T11:11:34;18.00;79.80
12870;DHT22;6503;48.572;13.460;2023-03-22T11:14:09;18.20;75.80
12870;DHT22;6503;48.572;13.460;2023-03-22T11:16:51;18.20;74.20
12870;DHT22;6503;48.572;13.460;2023-03-22T11:19:28;18.50;73.10
12870;DHT22;6503;48.572;13.460;2023-03-22T11:21:59;18.40;67.00
12870;DHT22;6503;48.572;13.460;2023-03-22T11:24:29;18.40;67.40
12870;DHT22;6503;48.572;13.460;2023-03-22T11:30:24;18.50;63.90
12870;DHT22;6503;48.572;13.460;2023-03-22T11:33:00;18.60;61.20
12870;DHT22;6503;48.572;13.460;2023-03-22T11:35:29;18.80;57.50
12870;DHT22;6503;48.572;13.460;2023-03-22T11:38:00;19.00;54.30
12870;DHT22;6503;48.572;13.460;2023-03-22T11:40:35;19.10;54.20
12870;DHT22;6503;48.572;13.460;2023-03-22T11:43:14;19.10;53.00
12870;DHT22;6503;48.572;13.460;2023-03-22T11:45:49;19.20;53.50
12870;DHT22;6503;48.572;13.460;2023-03-22T11:48:22;19.30;52.10
12870;DHT22;6503;48.572;13.460;2023-03-22T11:51:07;19.30;50.20
12870;DHT22;6503;48.572;13.460;2023-03-22T11:53:46;19.40;48.00
12870;DHT22;6503;48.572;13.460;2023-03-22T11:56:24;19.40;50.40
12870;DHT22;6503;48.572;13.460;2023-03-22T11:59:07;19.50;51.30
12870;DHT22;6503;48.572;13.460;2023-03-22T12:02:08;19.50;51.10
12870;DHT22;6503;48.572;13.460;2023-03-22T12:04:46;19.60;46.50
12870;DHT22;6503;48.572;13.460;2023-03-22T12:07:28;19.80;44.60
12870;DHT22;6503;48.572;13.460;2023-03-22T12:10:03;19.90;42.90
12870;DHT22;6503;48.572;13.460;2023-03-22T12:12:38;20.00;42.80
12870;DHT22;6503;48.572;13.460;2023-03-22T12:15:17;20.10;42.10
12870;DHT22;6503;48.572;13.460;2023-03-22T12:17:55;20.10;41.90
12870;DHT22;6503;48.572;13.460;2023-03-22T12:20:33;20.30;42.20
12870;DHT22;6503;48.572;13.460;2023-03-22T12:23:14;20.20;40.30
12870;DHT22;6503;48.572;13.460;2023-03-22T12:25:54;20.30;38.30
12870;DHT22;6503;48.572;13.460;2023-03-22T12:28:29;20.30;39.10
12870;DHT22;6503;48.572;13.460;2023-03-22T12:30:59;20.60;38.90
12870;DHT22;6503;48.572;13.460;2023-03-22T12:33:31;20.70;39.00
12870;DHT22;6503;48.572;13.460;2023-03-22T12:36:10;21.00;36.60
12870;DHT22;6503;48.572;13.460;2023-03-22T12:38:47;21.20;31.90
12870;DHT22;6503;48.572;13.460;2023-03-22T12:41:22;20.80;34.70
12870;DHT22;6503;48.572;13.460;2023-03-22T12:44:26;20.60;34.70
12870;DHT22;6503;48.572;13.460;2023-03-22T12:47:23;21.00;36.80
12870;DHT22;6503;48.572;13.460;2023-03-22T12:50:00;21.00;34.20
12870;DHT22;6503;48.572;13.460;2023-03-22T12:52:36;21.10;35.80
12870;DHT22;6503;48.572;13.460;2023-03-22T12:55:06;21.40;33.20
12870;DHT22;6503;48.572;13.460;2023-03-22T12:57:37;21.60;29.40
12870;DHT22;6503;48.572;13.460;2023-03-22T13:00:12;21.80;27.10
12870;DHT22;6503;48.572;13.460;2023-03-22T13:02:48;22.00;26.60
12870;DHT22;6503;48.572;13.460;2023-03-22T13:05:26;21.90;25.60
12870;DHT22;6503;48.572;13.460;2023-03-22T13:07:58;21.80;25.30
12870;DHT22;6503;48.572;13.460;2023-03-22T13:11:26;21.30;27.50
12870;DHT22;6503;48.572;13.460;2023-03-22T13:17:33;21.40;27.90
12870;DHT22;6503;48.572;13.460;2023-03-22T13:20:42;21.20;27.70
12870;DHT22;6503;48.572;13.460;2023-03-22T13:23:24;21.00;29.20
12870;DHT22;6503;48.572;13.460;2023-03-22T13:26:14;21.20;28.40
12870;DHT22;6503;48.572;13.460;2023-03-22T13:28:53;21.40;27.00
12870;DHT22;6503;48.572;13.460;2023-03-22T13:31:34;21.30;22.40
12870;DHT22;6503;48.572;13.460;2023-03-22T13:34:03;21.10;22.30
12870;DHT22;6503;48.572;13.460;2023-03-22T13:36:51;21.00;23.80
12870;DHT22;6503;48.572;13.460;2023-03-22T13:39:23;20.80;24.10
12870;DHT22;6503;48.572;13.460;2023-03-22T13:42:06;20.70;24.70
12870;DHT22;6503;48.572;13.460;2023-03-22T13:44:38;20.70;26.00
12870;DHT22;6503;48.572;13.460;2023-03-22T13:47:08;20.60;27.30
12870;DHT22;6503;48.572;13.460;2023-03-22T13:49:59;20.70;27.00
12870;DHT22;6503;48.572;13.460;2023-03-22T13:52:36;20.70;28.10
12870;DHT22;6503;48.572;13.460;2023-03-22T13:55:14;20.90;26.70
12870;DHT22;6503;48.572;13.460;2023-03-22T13:57:57;20.90;26.80
12870;DHT22;6503;48.572;13.460;2023-03-22T14:00:42;20.80;26.80
12870;DHT22;6503;48.572;13.460;2023-03-22T14:03:23;20.80;27.50
12870;DHT22;6503;48.572;13.460;2023-03-22T14:06:04;20.60;27.20
12870;DHT22;6503;48.572;13.460;2023-03-22T14:08:36;20.50;26.60
12870;DHT22;6503;48.572;13.460;2023-03-22T14:11:16;20.30;27.70
12870;DHT22;6503;48.572;13.460;2023-03-22T14:20:34;20.20;26.80
12870;DHT22;6503;48.572;13.460;2023-03-22T14:23:04;20.00;28.40
12870;DHT22;6503;48.572;13.460;2023-03-22T14:25:35;20.00;28.60
12870;DHT22;6503;48.572;13.460;2023-03-22T14:28:05;19.90;28.20
12870;DHT22;6503;48.572;13.460;2023-03-22T14:30:35;19.80;28.00
12870;DHT22;6503;48.572;13.460;2023-03-22T14:33:07;19.80;28.50
12870;DHT22;6503;48.572;13.460;2023-03-22T14:35:43;19.80;29.90
12870;DHT22;6503;48.572;13.460;2023-03-22T14:38:17;19.80;29.90
12870;DHT22;6503;48.572;13.460;2023-03-22T14:40:48;19.80;28.40
12870;DHT22;6503;48.572;13.460;2023-03-22T14:43:19;19.80;29.10
12870;DHT22;6503;48.572;13.460;2023-03-22T14:45:49;19.80;29.30
12870;DHT22;6503;48.572;13.460;2023-03-22T14:48:31;19.70;28.60
12870;DHT22;6503;48.572;13.460;2023-03-22T14:51:06;19.60;30.30
12870;DHT22;6503;48.572;13.460;2023-03-22T14:53:35;19.50;31.30
12870;DHT22;6503;48.572;13.460;2023-03-22T14:56:09;19.50;31.10
12870;DHT22;6503;48.572;13.460;2023-03-22T14:58:38;19.50;31.10
12870;DHT22;6503;48.572;13.460;2023-03-22T15:01:13;19.50;31.60
12870;DHT22;6503;48.572;13.460;2023-03-22T15:03:41;19.60;31.00
12870;DHT22;6503;48.572;13.460;2023-03-22T15:06:20;19.40;30.40
12870;DHT22;6503;48.572;13.460;2023-03-22T15:08:48;19.30;33.00
12870;DHT22;6503;48.572;13.460;2023-03-22T15:11:17;19.20;32.50
12870;DHT22;6503;48.572;13.460;2023-03-22T15:13:47;19.20;32.70
12870;DHT22;6503;48.572;13.460;2023-03-22T15:16:18;19.20;33.80
12870;DHT22;6503;48.572;13.460;2023-03-22T15:18:49;19.10;32.90
12870;DHT22;6503;48.572;13.460;2023-03-22T15:21:19;19.20;34.30
12870;DHT22;6503;48.572;13.460;2023-03-22T15:23:50;19.30;32.80
12870;DHT22;6503;48.572;13.460;2023-03-22T15:26:21;19.20;28.40
12870;DHT22;6503;48.572;13.460;2023-03-22T15:28:54;19.10;29.30
12870;DHT22;6503;48.572;13.460;2023-03-22T15:31:25;19.10;31.70
12870;DHT22;6503;48.572;13.460;2023-03-22T15:33:58;19.00;32.70
12870;DHT22;6503;48.572;13.460;2023-03-22T15:36:29;19.10;33.10
12870;DHT22;6503;48.572;13.460;2023-03-22T15:38:59;19.30;32.40
12870;DHT22;6503;48.572;13.460;2023-03-22T15:41:39;19.30;32.90
12870;DHT22;6503;48.572;13.460;2023-03-22T15:44:18;19.20;32.60
12870;DHT22;6503;48.572;13.460;2023-03-22T15:46:51;19.20;31.60
12870;DHT22;6503;48.572;13.460;2023-03-22T15:49:23;19.10;31.70
12870;DHT22;6503;48.572;13.460;2023-03-22T15:51:54;19.10;32.00
12870;DHT22;6503;48.572;13.460;2023-03-22T15:54:27;19.20;31.00
12870;DHT22;6503;48.572;13.460;2023-03-22T15:57:07;19.20;30.00
12870;DHT22;6503;48.572;13.460;2023-03-22T15:59:47;19.20;30.90
12870;DHT22;6503;48.572;13.460;2023-03-22T16:02:24;19.20;31.90
12870;DHT22;6503;48.572;13.460;2023-03-22T16:04:53;19.10;30.80
12870;DHT22;6503;48.572;13.460;2023-03-22T16:07:22;19.10;30.30
12870;DHT22;6503;48.572;13.460;2023-03-22T16:09:50;19.00;30.20
12870;DHT22;6503;48.572;13.460;2023-03-22T16:12:19;19.00;30.50
12870;DHT22;6503;48.572;13.460;2023-03-22T16:14:48;18.90;32.00
12870;DHT22;6503;48.572;13.460;2023-03-22T16:17:20;18.90;33.40
12870;DHT22;6503;48.572;13.460;2023-03-22T16:19:51;18.80;35.30
12870;DHT22;6503;48.572;13.460;2023-03-22T16:22:20;18.80;34.80
12870;DHT22;6503;48.572;13.460;2023-03-22T16:24:47;18.80;35.30
12870;DHT22;6503;48.572;13.460;2023-03-22T16:27:18;18.80;36.60
12870;DHT22;6503;48.572;13.460;2023-03-22T16:29:46;18.80;36.00
12870;DHT22;6503;48.572;13.460;2023-03-22T16:32:15;18.70;38.20
12870;DHT22;6503;48.572;13.460;2023-03-22T16:34:43;18.70;41.30
12870;DHT22;6503;48.572;13.460;2023-03-22T16:37:15;18.60;41.00
12870;DHT22;6503;48.572;13.460;2023-03-22T16:39:44;18.60;42.00
12870;DHT22;6503;48.572;13.460;2023-03-22T16:42:15;18.50;42.80
12870;DHT22;6503;48.572;13.460;2023-03-22T16:44:48;18.40;45.70
12870;DHT22;6503;48.572;13.460;2023-03-22T16:47:17;18.40;50.80
12870;DHT22;6503;48.572;13.460;2023-03-22T16:49:45;18.20;54.30
12870;DHT22;6503;48.572;13.460;2023-03-22T16:52:14;18.10;57.50
12870;DHT22;6503;48.572;13.460;2023-03-22T16:54:47;17.90;59.70
12870;DHT22;6503;48.572;13.460;2023-03-22T16:57:15;17.80;66.60
12870;DHT22;6503;48.572;13.460;2023-03-22T16:59:44;17.70;71.40
12870;DHT22;6503;48.572;13.460;2023-03-22T17:02:17;17.60;81.10
12870;DHT22;6503;48.572;13.460;2023-03-22T17:04:45;17.40;89.60
12870;DHT22;6503;48.572;13.460;2023-03-22T17:07:15;17.20;95.30
12870;DHT22;6503;48.572;13.460;2023-03-22T17:09:42;17.10;99.90
12870;DHT22;6503;48.572;13.460;2023-03-22T17:12:17;16.90;99.90
12870;DHT22;6503;48.572;13.460;2023-03-22T17:14:46;16.80;99.90
12870;DHT22;6503;48.572;13.460;2023-03-22T17:17:14;16.60;99.90
12870;DHT22;6503;48.572;13.460;2023-03-22T17:19:44;16.40;99.90
12870;DHT22;6503;48.572;13.460;2023-03-22T17:22:12;16.20;99.90
12870;DHT22;6503;48.572;13.460;2023-03-22T17:24:40;16.20;99.90
12870;DHT22;6503;48.572;13.460;2023-03-22T17:27:10;16.00;99.90
12870;DHT22;6503;48.572;13.460;2023-03-22T17:29:37;15.90;99.90
12870;DHT22;6503;48.572;13.460;2023-03-22T17:32:10;15.80;99.90
12870;DHT22;6503;48.572;13.460;2023-03-22T17:34:37;15.80;99.90
12870;DHT22;6503;48.572;13.460;2023-03-22T17:37:05;15.80;99.90
12870;DHT22;6503;48.572;13.460;2023-03-22T17:39:32;15.60;99.90
12870;DHT22;6503;48.572;13.460;2023-03-22T17:42:02;15.50;99.90
12870;DHT22;6503;48.572;13.460;2023-03-22T17:44:30;15.30;99.90
12870;DHT22;6503;48.572;13.460;2023-03-22T17:47:01;15.20;99.90
12870;DHT22;6503;48.572;13.460;2023-03-22T17:49:29;15.10;99.90
12870;DHT22;6503;48.572;13.460;2023-03-22T17:51:58;15.00;99.90
12870;DHT22;6503;48.572;13.460;2023-03-22T17:54:25;14.90;99.90
12870;DHT22;6503;48.572;13.460;2023-03-22T17:56:53;14.70;99.90
12870;DHT22;6503;48.572;13.460;2023-03-22T17:59:20;14.60;99.90
12870;DHT22;6503;48.572;13.460;2023-03-22T18:01:47;14.60;99.90
12870;DHT22;6503;48.572;13.460;2023-03-22T18:04:14;14.50;99.90
12870;DHT22;6503;48.572;13.460;2023-03-22T18:06:43;14.40;99.90
12870;DHT22;6503;48.572;13.460;2023-03-22T18:09:11;14.30;99.90
12870;DHT22;6503;48.572;13.460;2023-03-22T18:11:38;14.20;99.90
12870;DHT22;6503;48.572;13.460;2023-03-22T18:14:05;14.10;99.90
12870;DHT22;6503;48.572;13.460;2023-03-22T18:16:32;14.00;99.90
12870;DHT22;6503;48.572;13.460;2023-03-22T18:18:59;13.90;99.90
12870;DHT22;6503;48.572;13.460;2023-03-22T18:21:28;13.80;99.90
12870;DHT22;6503;48.572;13.460;2023-03-22T18:23:57;13.80;99.90
12870;DHT22;6503;48.572;13.460;2023-03-22T18:26:24;13.60;99.90
12870;DHT22;6503;48.572;13.460;2023-03-22T18:28:52;13.50;99.90
12870;DHT22;6503;48.572;13.460;2023-03-22T18:31:20;13.40;99.90
12870;DHT22;6503;48.572;13.460;2023-03-22T18:33:47;13.40;99.90
12870;DHT22;6503;48.572;13.460;2023-03-22T18:36:14;13.40;99.90
12870;DHT22;6503;48.572;13.460;2023-03-22T18:38:42;13.50;99.90
12870;DHT22;6503;48.572;13.460;2023-03-22T18:41:12;13.50;99.90
12870;DHT22;6503;48.572;13.460;2023-03-22T18:43:40;13.50;99.90
12870;DHT22;6503;48.572;13.460;2023-03-22T18:46:08;13.50;99.90
12870;DHT22;6503;48.572;13.460;2023-03-22T18:48:35;13.40;99.90
12870;DHT22;6503;48.572;13.460;2023-03-22T18:51:03;13.30;99.90
12870;DHT22;6503;48.572;13.460;2023-03-22T18:53:31;13.30;99.90
12870;DHT22;6503;48.572;13.460;2023-03-22T18:55:59;13.20;99.90
12870;DHT22;6503;48.572;13.460;2023-03-22T18:58:29;13.10;99.90
12870;DHT22;6503;48.572;13.460;2023-03-22T19:00:59;13.00;99.90
12870;DHT22;6503;48.572;13.460;2023-03-22T19:03:28;12.80;99.90
12870;DHT22;6503;48.572;13.460;2023-03-22T19:06:02;12.80;99.90
12870;DHT22;6503;48.572;13.460;2023-03-22T19:08:29;12.80;99.90
12870;DHT22;6503;48.572;13.460;2023-03-22T19:10:56;12.80;99.90
12870;DHT22;6503;48.572;13.460;2023-03-22T19:13:23;12.60;99.90
12870;DHT22;6503;48.572;13.460;2023-03-22T19:15:52;12.50;99.90
12870;DHT22;6503;48.572;13.460;2023-03-22T19:18:19;12.30;99.90
12870;DHT22;6503;48.572;13.460;2023-03-22T19:20:46;12.20;99.90
12870;DHT22;6503;48.572;13.460;2023-03-22T19:23:13;12.20;99.90
12870;DHT22;6503;48.572;13.460;2023-03-22T21:25:09;10.20;99.90
12870;DHT22;6503;48.572;13.460;2023-03-22T21:27:37;10.20;99.90
12870;DHT22;6503;48.572;13.460;2023-03-22T21:30:07;10.20;99.90
12870;DHT22;6503;48.572;13.460;2023-03-22T21:32:35;10.10;99.90
12870;DHT22;6503;48.572;13.460;2023-03-22T21:35:05;10.00;99.90
12870;DHT22;6503;48.572;13.460;2023-03-22T21:37:32;10.00;99.90
12870;DHT22;6503;48.572;13.460;2023-03-22T21:39:59;9.90;99.90
12870;DHT22;6503;48.572;13.460;2023-03-22T21:42:33;9.80;99.90
12870;DHT22;6503;48.572;13.460;2023-03-22T21:45:03;9.80;99.90
12870;DHT22;6503;48.572;13.460;2023-03-22T21:47:32;9.80;99.90
12870;DHT22;6503;48.572;13.460;2023-03-22T21:50:00;9.80;99.90
12870;DHT22;6503;48.572;13.460;2023-03-22T21:52:28;9.80;99.90
12870;DHT22;6503;48.572;13.460;2023-03-22T21:54:55;9.70;99.90
12870;DHT22;6503;48.572;13.460;2023-03-22T21:57:24;9.60;99.90
12870;DHT22;6503;48.572;13.460;2023-03-22T21:59:53;9.60;99.90
12870;DHT22;6503;48.572;13.460;2023-03-22T22:02:23;9.70;99.90
12870;DHT22;6503;48.572;13.460;2023-03-22T22:04:51;9.70;99.90
12870;DHT22;6503;48.572;13.460;2023-03-22T22:07:20;9.70;99.90
